Terminal Aerodrome Forecast
Issued by NWS

Home | Current Version | Previous Version | Text Only | Print | Product List | Glossary On
Versions: 1 2 3 4 5 6 7 8 9 10 11 12 13 14 15 16 17 18 19 20 21 22 23 24 25 26 27 28 29 30
660
FTUS42 KCAE 220525
TAFDNL
TAF
KDNL 220525Z 2206/2306 09007KT P6SM -SHRA BKN015
      TEMPO 2210/2212 BKN007
     FM221400 10007KT P6SM BKN025
      TEMPO 2214/2218 5SM -SHRA
     FM222100 12006KT P6SM VCSH BKN035
     FM230200 VRB03KT P6SM SCT040 OVC100=

USA.gov is the U.S. government's official web portal to all federal, state and local government web resources and services.